Terminal Aerodrome Forecast
Issued by NWS Memphis, TN

Home | Current Version | Previous Version | Text Only | Print | Product List | Glossary On
Versions: 1 2 3 4 5 6 7 8 9 10 11 12 13 14 15 16 17 18 19 20 21 22 23 24 25 26 27
000
FTUS44 KMEG 231514 AAA
TAFMEM
TAF AMD
KMEM 231514Z 2315/2412 12005KT P6SM BKN150
     FM231700 12008KT P6SM BKN120
     FM240000 15009KT P6SM BKN080
     FM240900 15010KT P6SM VCSH OVC060=

USA.gov is the U.S. government's official web portal to all federal, state and local government web resources and services.